sensor_id;sensor_type;location;lat;lon;timestamp;pressure;altitude;pressure_sealevel;temperature;humidity
11648;BME280;5880;52.342;9.662;2023-06-10T00:00:35;101090.66;;;24.57;34.05
11648;BME280;5880;52.342;9.662;2023-06-10T00:03:01;101080.75;;;24.51;33.76
11648;BME280;5880;52.342;9.662;2023-06-10T00:05:27;101086.66;;;24.50;34.13
11648;BME280;5880;52.342;9.662;2023-06-10T00:07:56;101084.78;;;24.45;34.11
11648;BME280;5880;52.342;9.662;2023-06-10T00:10:22;101085.50;;;24.37;34.15
11648;BME280;5880;52.342;9.662;2023-06-10T00:12:48;101086.16;;;24.34;34.27
11648;BME280;5880;52.342;9.662;2023-06-10T00:15:14;101089.59;;;24.31;34.29
11648;BME280;5880;52.342;9.662;2023-06-10T00:17:39;101080.16;;;24.27;34.38
11648;BME280;5880;52.342;9.662;2023-06-10T00:20:08;101078.00;;;24.23;34.57
11648;BME280;5880;52.342;9.662;2023-06-10T00:22:37;101080.59;;;24.20;34.50
11648;BME280;5880;52.342;9.662;2023-06-10T00:25:05;101085.34;;;24.19;34.34
11648;BME280;5880;52.342;9.662;2023-06-10T00:27:32;101086.00;;;24.16;34.49
11648;BME280;5880;52.342;9.662;2023-06-10T00:30:04;101077.09;;;24.14;34.55
11648;BME280;5880;52.342;9.662;2023-06-10T00:32:33;101081.66;;;24.10;34.42
11648;BME280;5880;52.342;9.662;2023-06-10T00:34:58;101083.75;;;24.05;34.44
11648;BME280;5880;52.342;9.662;2023-06-10T00:37:24;101079.41;;;23.98;34.55
11648;BME280;5880;52.342;9.662;2023-06-10T00:39:50;101080.63;;;23.92;34.58
11648;BME280;5880;52.342;9.662;2023-06-10T00:42:16;101088.28;;;23.87;34.63
11648;BME280;5880;52.342;9.662;2023-06-10T00:44:42;101089.53;;;23.80;34.80
11648;BME280;5880;52.342;9.662;2023-06-10T00:47:08;101089.00;;;23.78;34.90
11648;BME280;5880;52.342;9.662;2023-06-10T00:49:34;101094.09;;;23.76;35.24
11648;BME280;5880;52.342;9.662;2023-06-10T00:52:03;101084.13;;;23.70;35.11
11648;BME280;5880;52.342;9.662;2023-06-10T00:54:30;101086.09;;;23.70;35.22
11648;BME280;5880;52.342;9.662;2023-06-10T00:56:56;101079.25;;;23.62;35.33
11648;BME280;5880;52.342;9.662;2023-06-10T00:59:23;101081.03;;;23.58;35.37
11648;BME280;5880;52.342;9.662;2023-06-10T01:01:50;101077.41;;;23.57;35.29
11648;BME280;5880;52.342;9.662;2023-06-10T01:04:17;101086.91;;;23.56;35.05
11648;BME280;5880;52.342;9.662;2023-06-10T01:06:56;101090.63;;;23.52;35.16
11648;BME280;5880;52.342;9.662;2023-06-10T01:14:54;101078.31;;;23.25;35.66
11648;BME280;5880;52.342;9.662;2023-06-10T01:17:20;101087.88;;;23.19;35.70
11648;BME280;5880;52.342;9.662;2023-06-10T01:19:56;101090.66;;;23.19;35.90
11648;BME280;5880;52.342;9.662;2023-06-10T01:22:27;101095.81;;;23.12;36.16
11648;BME280;5880;52.342;9.662;2023-06-10T01:24:58;101096.22;;;23.05;36.36
11648;BME280;5880;52.342;9.662;2023-06-10T01:27:30;101087.66;;;23.02;36.70
11648;BME280;5880;52.342;9.662;2023-06-10T01:30:19;101089.06;;;22.99;36.39
11648;BME280;5880;52.342;9.662;2023-06-10T01:32:51;101090.25;;;22.93;36.55
11648;BME280;5880;52.342;9.662;2023-06-10T01:35:18;101093.13;;;22.88;36.61
11648;BME280;5880;52.342;9.662;2023-06-10T01:37:49;101108.81;;;22.84;36.49
11648;BME280;5880;52.342;9.662;2023-06-10T01:40:18;101106.94;;;22.79;36.63
11648;BME280;5880;52.342;9.662;2023-06-10T01:42:43;101112.25;;;22.75;36.95
11648;BME280;5880;52.342;9.662;2023-06-10T01:45:09;101112.06;;;22.72;36.81
11648;BME280;5880;52.342;9.662;2023-06-10T01:47:35;101106.84;;;22.65;37.19
11648;BME280;5880;52.342;9.662;2023-06-10T01:50:01;101102.72;;;22.63;37.12
11648;BME280;5880;52.342;9.662;2023-06-10T01:52:26;101104.78;;;22.57;37.35
11648;BME280;5880;52.342;9.662;2023-06-10T01:54:52;101099.50;;;22.55;37.37
11648;BME280;5880;52.342;9.662;2023-06-10T01:57:18;101105.97;;;22.51;37.47
11648;BME280;5880;52.342;9.662;2023-06-10T01:59:44;101100.47;;;22.46;37.65
11648;BME280;5880;52.342;9.662;2023-06-10T02:02:10;101100.84;;;22.39;37.79
11648;BME280;5880;52.342;9.662;2023-06-10T02:04:36;101106.50;;;22.34;37.82
11648;BME280;5880;52.342;9.662;2023-06-10T02:07:02;101109.63;;;22.27;38.05
11648;BME280;5880;52.342;9.662;2023-06-10T02:09:30;101105.53;;;22.20;38.33
11648;BME280;5880;52.342;9.662;2023-06-10T02:11:57;101105.66;;;22.09;38.43
11648;BME280;5880;52.342;9.662;2023-06-10T02:14:22;101109.13;;;22.01;38.47
11648;BME280;5880;52.342;9.662;2023-06-10T02:16:48;101111.44;;;21.94;38.73
11648;BME280;5880;52.342;9.662;2023-06-10T02:19:14;101126.19;;;21.95;39.07
11648;BME280;5880;52.342;9.662;2023-06-10T02:21:39;101133.44;;;21.90;39.04
11648;BME280;5880;52.342;9.662;2023-06-10T02:24:06;101135.47;;;21.85;39.25
11648;BME280;5880;52.342;9.662;2023-06-10T02:26:32;101132.22;;;21.78;39.51
11648;BME280;5880;52.342;9.662;2023-06-10T02:28:57;101134.22;;;21.72;39.40
11648;BME280;5880;52.342;9.662;2023-06-10T02:31:23;101137.34;;;21.65;39.46
11648;BME280;5880;52.342;9.662;2023-06-10T02:33:50;101132.44;;;21.57;39.84
11648;BME280;5880;52.342;9.662;2023-06-10T02:36:16;101129.66;;;21.57;39.75
11648;BME280;5880;52.342;9.662;2023-06-10T02:38:42;101139.16;;;21.51;40.08
11648;BME280;5880;52.342;9.662;2023-06-10T02:41:08;101138.94;;;21.47;40.22
11648;BME280;5880;52.342;9.662;2023-06-10T02:43:33;101130.66;;;21.42;40.16
11648;BME280;5880;52.342;9.662;2023-06-10T02:45:59;101140.94;;;21.37;40.32
11648;BME280;5880;52.342;9.662;2023-06-10T02:48:25;101138.22;;;21.32;40.53
11648;BME280;5880;52.342;9.662;2023-06-10T02:50:50;101146.06;;;21.24;40.46
11648;BME280;5880;52.342;9.662;2023-06-10T02:53:16;101152.72;;;21.23;40.46
11648;BME280;5880;52.342;9.662;2023-06-10T02:55:42;101150.53;;;21.20;40.76
11648;BME280;5880;52.342;9.662;2023-06-10T02:58:08;101153.66;;;21.14;40.62
11648;BME280;5880;52.342;9.662;2023-06-10T03:00:34;101143.13;;;21.11;40.78
11648;BME280;5880;52.342;9.662;2023-06-10T03:02:59;101146.19;;;21.09;41.01
11648;BME280;5880;52.342;9.662;2023-06-10T03:05:29;101138.75;;;20.99;41.14
11648;BME280;5880;52.342;9.662;2023-06-10T03:07:55;101140.94;;;21.02;41.11
11648;BME280;5880;52.342;9.662;2023-06-10T03:10:20;101136.56;;;20.96;41.29
11648;BME280;5880;52.342;9.662;2023-06-10T03:12:46;101139.09;;;20.93;41.12
11648;BME280;5880;52.342;9.662;2023-06-10T03:15:12;101151.31;;;20.92;41.48
11648;BME280;5880;52.342;9.662;2023-06-10T03:17:38;101154.97;;;20.87;41.41
11648;BME280;5880;52.342;9.662;2023-06-10T03:20:05;101158.34;;;20.84;41.65
11648;BME280;5880;52.342;9.662;2023-06-10T03:22:36;101153.91;;;20.78;41.86
11648;BME280;5880;52.342;9.662;2023-06-10T03:25:04;101159.25;;;20.69;42.36
11648;BME280;5880;52.342;9.662;2023-06-10T03:27:31;101152.09;;;20.63;42.18
11648;BME280;5880;52.342;9.662;2023-06-10T03:29:58;101166.53;;;20.60;42.24
11648;BME280;5880;52.342;9.662;2023-06-10T03:32:23;101164.31;;;20.57;42.45
11648;BME280;5880;52.342;9.662;2023-06-10T03:34:49;101163.19;;;20.53;42.47
11648;BME280;5880;52.342;9.662;2023-06-10T03:37:15;101157.44;;;20.44;42.91
11648;BME280;5880;52.342;9.662;2023-06-10T03:39:40;101160.72;;;20.46;42.74
11648;BME280;5880;52.342;9.662;2023-06-10T03:42:06;101160.50;;;20.42;42.79
11648;BME280;5880;52.342;9.662;2023-06-10T03:44:32;101162.44;;;20.37;43.23
11648;BME280;5880;52.342;9.662;2023-06-10T03:46:58;101162.16;;;20.38;43.00
11648;BME280;5880;52.342;9.662;2023-06-10T03:49:25;101165.22;;;20.42;42.88
11648;BME280;5880;52.342;9.662;2023-06-10T03:51:52;101175.47;;;20.47;43.13
11648;BME280;5880;52.342;9.662;2023-06-10T03:54:18;101174.88;;;20.50;43.12
11648;BME280;5880;52.342;9.662;2023-06-10T03:56:44;101172.06;;;20.55;43.10
11648;BME280;5880;52.342;9.662;2023-06-10T03:59:09;101174.63;;;20.56;42.93
11648;BME280;5880;52.342;9.662;2023-06-10T04:01:35;101179.59;;;20.59;42.97
11648;BME280;5880;52.342;9.662;2023-06-10T04:04:02;101184.84;;;20.61;43.25
11648;BME280;5880;52.342;9.662;2023-06-10T04:06:28;101177.34;;;20.61;42.98
11648;BME280;5880;52.342;9.662;2023-06-10T04:08:55;101189.84;;;20.64;42.92
11648;BME280;5880;52.342;9.662;2023-06-10T04:11:23;101193.44;;;20.64;43.41
11648;BME280;5880;52.342;9.662;2023-06-10T04:13:49;101191.50;;;20.60;43.57
11648;BME280;5880;52.342;9.662;2023-06-10T04:16:15;101179.84;;;20.58;43.65
11648;BME280;5880;52.342;9.662;2023-06-10T04:18:41;101189.00;;;20.53;43.83
11648;BME280;5880;52.342;9.662;2023-06-10T04:21:10;101189.63;;;20.45;43.78
11648;BME280;5880;52.342;9.662;2023-06-10T04:23:35;101182.97;;;20.41;44.06
11648;BME280;5880;52.342;9.662;2023-06-10T04:26:02;101181.31;;;20.40;44.01
11648;BME280;5880;52.342;9.662;2023-06-10T04:28:28;101181.88;;;20.37;44.00
11648;BME280;5880;52.342;9.662;2023-06-10T04:30:54;101179.09;;;20.37;43.97
11648;BME280;5880;52.342;9.662;2023-06-10T04:33:19;101177.41;;;20.41;44.00
11648;BME280;5880;52.342;9.662;2023-06-10T04:35:45;101180.50;;;20.39;44.55
11648;BME280;5880;52.342;9.662;2023-06-10T04:38:13;101184.38;;;20.38;44.20
11648;BME280;5880;52.342;9.662;2023-06-10T04:40:39;101184.66;;;20.42;44.29
11648;BME280;5880;52.342;9.662;2023-06-10T04:43:05;101188.50;;;20.46;44.26
11648;BME280;5880;52.342;9.662;2023-06-10T04:45:31;101189.34;;;20.47;44.33
11648;BME280;5880;52.342;9.662;2023-06-10T04:47:57;101188.22;;;20.48;44.44
11648;BME280;5880;52.342;9.662;2023-06-10T04:50:23;101184.91;;;20.45;44.33
11648;BME280;5880;52.342;9.662;2023-06-10T04:52:49;101175.47;;;20.47;44.52
11648;BME280;5880;52.342;9.662;2023-06-10T04:55:15;101174.63;;;20.51;44.90
11648;BME280;5880;52.342;9.662;2023-06-10T04:57:41;101179.34;;;20.56;44.79
11648;BME280;5880;52.342;9.662;2023-06-10T05:00:07;101184.56;;;20.62;44.78
11648;BME280;5880;52.342;9.662;2023-06-10T05:02:34;101184.81;;;20.66;44.65
11648;BME280;5880;52.342;9.662;2023-06-10T05:04:59;101183.41;;;20.69;44.89
11648;BME280;5880;52.342;9.662;2023-06-10T05:07:25;101180.31;;;20.75;45.01
11648;BME280;5880;52.342;9.662;2023-06-10T05:09:51;101186.13;;;20.84;45.03
11648;BME280;5880;52.342;9.662;2023-06-10T05:12:17;101186.63;;;20.91;45.39
11648;BME280;5880;52.342;9.662;2023-06-10T05:14:42;101186.81;;;21.00;45.29
11648;BME280;5880;52.342;9.662;2023-06-10T05:17:10;101180.38;;;21.10;45.17
11648;BME280;5880;52.342;9.662;2023-06-10T05:19:36;101182.81;;;21.16;45.45
11648;BME280;5880;52.342;9.662;2023-06-10T05:22:03;101185.53;;;21.26;45.45
11648;BME280;5880;52.342;9.662;2023-06-10T05:24:28;101185.19;;;21.33;45.30
11648;BME280;5880;52.342;9.662;2023-06-10T05:26:54;101183.78;;;21.36;45.25
11648;BME280;5880;52.342;9.662;2023-06-10T05:29:20;101181.13;;;21.55;45.72
11648;BME280;5880;52.342;9.662;2023-06-10T05:31:45;101186.25;;;21.71;45.46
11648;BME280;5880;52.342;9.662;2023-06-10T05:34:11;101168.88;;;21.85;45.55
11648;BME280;5880;52.342;9.662;2023-06-10T05:36:37;101165.13;;;21.95;45.48
11648;BME280;5880;52.342;9.662;2023-06-10T05:39:03;101179.94;;;22.14;45.35
11648;BME280;5880;52.342;9.662;2023-06-10T05:41:28;101175.09;;;22.25;44.97
11648;BME280;5880;52.342;9.662;2023-06-10T05:43:54;101173.84;;;22.36;45.09
11648;BME280;5880;52.342;9.662;2023-06-10T05:46:20;101176.19;;;22.48;45.23
11648;BME280;5880;52.342;9.662;2023-06-10T05:48:46;101177.41;;;22.61;45.35
11648;BME280;5880;52.342;9.662;2023-06-10T05:51:12;101172.75;;;22.75;45.35
11648;BME280;5880;52.342;9.662;2023-06-10T05:53:37;101178.63;;;22.92;45.60
11648;BME280;5880;52.342;9.662;2023-06-10T05:56:04;101170.78;;;23.13;45.60
11648;BME280;5880;52.342;9.662;2023-06-10T05:58:29;101172.84;;;23.41;45.28
11648;BME280;5880;52.342;9.662;2023-06-10T06:00:55;101174.34;;;23.66;44.96
11648;BME280;5880;52.342;9.662;2023-06-10T06:03:21;101170.88;;;24.01;44.52
11648;BME280;5880;52.342;9.662;2023-06-10T06:05:47;101170.22;;;24.46;44.42
11648;BME280;5880;52.342;9.662;2023-06-10T06:08:12;101178.00;;;24.99;43.94
11648;BME280;5880;52.342;9.662;2023-06-10T06:10:45;101174.75;;;25.51;43.58
11648;BME280;5880;52.342;9.662;2023-06-10T06:13:11;101166.16;;;26.10;43.56
11648;BME280;5880;52.342;9.662;2023-06-10T06:15:36;101164.38;;;26.71;42.63
11648;BME280;5880;52.342;9.662;2023-06-10T06:18:02;101167.50;;;27.22;42.48
11648;BME280;5880;52.342;9.662;2023-06-10T06:20:28;101169.03;;;27.84;42.31
11648;BME280;5880;52.342;9.662;2023-06-10T06:22:54;101177.28;;;28.49;41.78
11648;BME280;5880;52.342;9.662;2023-06-10T06:25:19;101174.69;;;29.07;40.99
11648;BME280;5880;52.342;9.662;2023-06-10T06:27:45;101178.44;;;29.65;40.48
11648;BME280;5880;52.342;9.662;2023-06-10T06:30:11;101178.19;;;30.28;40.26
11648;BME280;5880;52.342;9.662;2023-06-10T06:32:37;101180.31;;;30.96;39.91
11648;BME280;5880;52.342;9.662;2023-06-10T06:35:03;101176.94;;;31.63;38.66
11648;BME280;5880;52.342;9.662;2023-06-10T06:37:31;101182.44;;;32.19;37.61
11648;BME280;5880;52.342;9.662;2023-06-10T06:39:58;101188.25;;;32.58;36.52
11648;BME280;5880;52.342;9.662;2023-06-10T06:42:24;101184.16;;;32.75;35.64
11648;BME280;5880;52.342;9.662;2023-06-10T06:44:50;101183.59;;;32.85;35.42
11648;BME280;5880;52.342;9.662;2023-06-10T06:47:15;101179.22;;;33.07;35.38
11648;BME280;5880;52.342;9.662;2023-06-10T06:49:48;101174.75;;;33.26;34.60
11648;BME280;5880;52.342;9.662;2023-06-10T06:52:15;101170.38;;;33.51;34.24
11648;BME280;5880;52.342;9.662;2023-06-10T06:54:40;101178.06;;;33.97;34.27
11648;BME280;5880;52.342;9.662;2023-06-10T06:57:06;101179.94;;;34.35;33.66
11648;BME280;5880;52.342;9.662;2023-06-10T06:59:33;101175.19;;;34.70;32.97
11648;BME280;5880;52.342;9.662;2023-06-10T07:01:58;101177.72;;;35.08;32.70
11648;BME280;5880;52.342;9.662;2023-06-10T07:04:24;101183.31;;;35.35;32.29
11648;BME280;5880;52.342;9.662;2023-06-10T07:06:50;101175.66;;;35.39;31.67
11648;BME280;5880;52.342;9.662;2023-06-10T07:09:16;101187.25;;;35.23;31.07
11648;BME280;5880;52.342;9.662;2023-06-10T07:11:41;101185.63;;;34.92;31.06
11648;BME280;5880;52.342;9.662;2023-06-10T07:14:08;101181.56;;;34.63;30.40
11648;BME280;5880;52.342;9.662;2023-06-10T07:16:34;101192.00;;;34.29;30.26
11648;BME280;5880;52.342;9.662;2023-06-10T07:18:59;101193.47;;;33.96;30.55
11648;BME280;5880;52.342;9.662;2023-06-10T07:21:25;101184.81;;;33.66;30.95
11648;BME280;5880;52.342;9.662;2023-06-10T07:23:51;101193.50;;;33.34;30.51
11648;BME280;5880;52.342;9.662;2023-06-10T07:26:22;101193.09;;;32.96;30.74
11648;BME280;5880;52.342;9.662;2023-06-10T07:28:48;101187.72;;;32.52;30.77
11648;BME280;5880;52.342;9.662;2023-06-10T07:31:13;101186.75;;;32.13;31.25
11648;BME280;5880;52.342;9.662;2023-06-10T07:33:39;101195.56;;;31.80;30.95
11648;BME280;5880;52.342;9.662;2023-06-10T07:36:06;101194.44;;;31.52;31.77
11648;BME280;5880;52.342;9.662;2023-06-10T07:38:32;101191.34;;;31.29;31.30
11648;BME280;5880;52.342;9.662;2023-06-10T07:40:58;101194.06;;;30.98;31.70
11648;BME280;5880;52.342;9.662;2023-06-10T07:43:24;101194.34;;;30.68;31.94
11648;BME280;5880;52.342;9.662;2023-06-10T07:45:50;101196.84;;;30.45;31.74
11648;BME280;5880;52.342;9.662;2023-06-10T07:48:15;101193.78;;;30.25;32.34
11648;BME280;5880;52.342;9.662;2023-06-10T07:50:41;101198.25;;;30.02;32.36
11648;BME280;5880;52.342;9.662;2023-06-10T07:53:07;101203.84;;;29.77;32.13
11648;BME280;5880;52.342;9.662;2023-06-10T07:55:32;101195.91;;;29.58;32.82
11648;BME280;5880;52.342;9.662;2023-06-10T07:57:58;101186.59;;;29.45;33.52
11648;BME280;5880;52.342;9.662;2023-06-10T08:00:24;101185.66;;;29.41;33.65
11648;BME280;5880;52.342;9.662;2023-06-10T08:02:50;101192.66;;;29.35;33.32
11648;BME280;5880;52.342;9.662;2023-06-10T08:05:16;101187.31;;;29.21;33.40
11648;BME280;5880;52.342;9.662;2023-06-10T08:07:42;101186.28;;;29.05;33.33
11648;BME280;5880;52.342;9.662;2023-06-10T08:10:08;101172.00;;;28.89;33.64
11648;BME280;5880;52.342;9.662;2023-06-10T08:12:35;101179.91;;;28.75;33.36
11648;BME280;5880;52.342;9.662;2023-06-10T08:15:02;101188.56;;;28.70;33.47
11648;BME280;5880;52.342;9.662;2023-06-10T08:17:30;101179.72;;;28.59;33.94
11648;BME280;5880;52.342;9.662;2023-06-10T08:19:56;101189.03;;;28.51;33.79
11648;BME280;5880;52.342;9.662;2023-06-10T08:22:22;101183.91;;;28.44;34.05
11648;BME280;5880;52.342;9.662;2023-06-10T08:24:47;101179.84;;;28.33;34.35
11648;BME280;5880;52.342;9.662;2023-06-10T08:27:13;101182.72;;;28.24;34.32
11648;BME280;5880;52.342;9.662;2023-06-10T08:29:39;101179.44;;;28.13;34.21
11648;BME280;5880;52.342;9.662;2023-06-10T08:32:06;101183.47;;;28.04;34.66
11648;BME280;5880;52.342;9.662;2023-06-10T08:34:35;101184.97;;;28.01;34.64
11648;BME280;5880;52.342;9.662;2023-06-10T08:37:02;101181.84;;;28.03;34.86
11648;BME280;5880;52.342;9.662;2023-06-10T08:39:28;101186.25;;;28.12;35.08
11648;BME280;5880;52.342;9.662;2023-06-10T08:44:44;101179.94;;;28.15;34.76
11648;BME280;5880;52.342;9.662;2023-06-10T08:47:16;101175.00;;;28.12;34.82
11648;BME280;5880;52.342;9.662;2023-06-10T08:49:47;101173.34;;;28.11;35.13
11648;BME280;5880;52.342;9.662;2023-06-10T08:52:18;101164.59;;;28.13;34.92
11648;BME280;5880;52.342;9.662;2023-06-10T08:54:59;101156.00;;;28.09;34.86
11648;BME280;5880;52.342;9.662;2023-06-10T08:57:26;101161.47;;;28.06;35.23
11648;BME280;5880;52.342;9.662;2023-06-10T08:59:53;101164.78;;;28.08;35.52
11648;BME280;5880;52.342;9.662;2023-06-10T09:02:20;101164.09;;;28.11;35.29
11648;BME280;5880;52.342;9.662;2023-06-10T09:04:47;101149.56;;;28.09;35.40
11648;BME280;5880;52.342;9.662;2023-06-10T09:07:16;101162.38;;;28.18;35.09
11648;BME280;5880;52.342;9.662;2023-06-10T09:09:45;101150.34;;;28.18;35.12
11648;BME280;5880;52.342;9.662;2023-06-10T09:12:13;101158.56;;;28.23;35.25
11648;BME280;5880;52.342;9.662;2023-06-10T09:14:40;101156.53;;;28.32;35.25
11648;BME280;5880;52.342;9.662;2023-06-10T09:17:06;101154.50;;;28.41;35.09
11648;BME280;5880;52.342;9.662;2023-06-10T09:19:32;101151.69;;;28.41;34.71
11648;BME280;5880;52.342;9.662;2023-06-10T09:21:58;101141.94;;;28.39;35.11
11648;BME280;5880;52.342;9.662;2023-06-10T09:24:24;101152.34;;;28.47;35.04
11648;BME280;5880;52.342;9.662;2023-06-10T09:27:02;101144.38;;;28.49;35.02
11648;BME280;5880;52.342;9.662;2023-06-10T09:29:28;101153.97;;;28.48;34.90
11648;BME280;5880;52.342;9.662;2023-06-10T09:31:54;101150.00;;;28.49;35.19
11648;BME280;5880;52.342;9.662;2023-06-10T09:34:25;101141.72;;;28.53;34.82
11648;BME280;5880;52.342;9.662;2023-06-10T09:36:51;101150.63;;;28.55;34.91
11648;BME280;5880;52.342;9.662;2023-06-10T09:39:18;101149.94;;;28.58;35.08
11648;BME280;5880;52.342;9.662;2023-06-10T09:41:45;101142.00;;;28.60;35.14
11648;BME280;5880;52.342;9.662;2023-06-10T09:44:14;101155.34;;;28.63;35.06
11648;BME280;5880;52.342;9.662;2023-06-10T09:46:41;101140.47;;;28.62;34.76
11648;BME280;5880;52.342;9.662;2023-06-10T09:49:07;101148.72;;;28.68;35.01
11648;BME280;5880;52.342;9.662;2023-06-10T09:51:33;101154.13;;;28.73;34.77
11648;BME280;5880;52.342;9.662;2023-06-10T09:54:03;101136.31;;;28.69;34.31
11648;BME280;5880;52.342;9.662;2023-06-10T09:56:35;101145.69;;;28.73;34.46
11648;BME280;5880;52.342;9.662;2023-06-10T09:59:03;101146.75;;;28.68;34.43
11648;BME280;5880;52.342;9.662;2023-06-10T10:01:31;101144.53;;;28.74;34.36
11648;BME280;5880;52.342;9.662;2023-06-10T10:03:59;101134.91;;;28.75;34.20
11648;BME280;5880;52.342;9.662;2023-06-10T10:06:25;101136.56;;;28.76;34.15
11648;BME280;5880;52.342;9.662;2023-06-10T10:08:51;101143.97;;;28.80;34.14
11648;BME280;5880;52.342;9.662;2023-06-10T10:11:20;101143.16;;;28.80;34.32
11648;BME280;5880;52.342;9.662;2023-06-10T10:13:50;101137.19;;;28.81;34.43
11648;BME280;5880;52.342;9.662;2023-06-10T10:16:33;101133.22;;;28.82;34.16
11648;BME280;5880;52.342;9.662;2023-06-10T10:19:08;101141.78;;;28.86;34.22
11648;BME280;5880;52.342;9.662;2023-06-10T10:21:50;101144.09;;;28.84;34.25
11648;BME280;5880;52.342;9.662;2023-06-10T10:24:23;101141.44;;;28.88;34.63
11648;BME280;5880;52.342;9.662;2023-06-10T10:26:58;101139.09;;;28.90;34.48
11648;BME280;5880;52.342;9.662;2023-06-10T10:29:38;101143.47;;;28.99;34.43
11648;BME280;5880;52.342;9.662;2023-06-10T10:32:08;101138.34;;;29.01;34.53
11648;BME280;5880;52.342;9.662;2023-06-10T10:34:47;101146.88;;;29.05;34.27
11648;BME280;5880;52.342;9.662;2023-06-10T10:37:14;101144.91;;;29.05;34.37
11648;BME280;5880;52.342;9.662;2023-06-10T10:39:41;101146.25;;;29.08;34.51
11648;BME280;5880;52.342;9.662;2023-06-10T10:42:08;101141.56;;;29.12;34.50
11648;BME280;5880;52.342;9.662;2023-06-10T10:44:38;101130.19;;;29.09;34.24
11648;BME280;5880;52.342;9.662;2023-06-10T10:47:08;101135.59;;;29.14;33.94
11648;BME280;5880;52.342;9.662;2023-06-10T10:49:37;101130.66;;;29.11;33.84
11648;BME280;5880;52.342;9.662;2023-06-10T10:52:04;101135.63;;;29.05;33.91
11648;BME280;5880;52.342;9.662;2023-06-10T10:54:35;101142.94;;;29.06;34.41
11648;BME280;5880;52.342;9.662;2023-06-10T10:57:30;101141.28;;;29.05;34.63
11648;BME280;5880;52.342;9.662;2023-06-10T10:59:58;101135.63;;;29.05;34.89
11648;BME280;5880;52.342;9.662;2023-06-10T11:02:48;101135.94;;;29.12;34.80
11648;BME280;5880;52.342;9.662;2023-06-10T11:08:04;101135.75;;;29.17;34.76
11648;BME280;5880;52.342;9.662;2023-06-10T11:10:36;101130.38;;;29.24;35.13
11648;BME280;5880;52.342;9.662;2023-06-10T11:13:13;101137.88;;;29.33;35.45
11648;BME280;5880;52.342;9.662;2023-06-10T11:15:47;101138.47;;;29.38;35.08
11648;BME280;5880;52.342;9.662;2023-06-10T11:18:28;101136.28;;;29.44;35.05
11648;BME280;5880;52.342;9.662;2023-06-10T11:21:00;101130.75;;;29.48;34.98
11648;BME280;5880;52.342;9.662;2023-06-10T11:31:51;101120.72;;;29.71;35.34
11648;BME280;5880;52.342;9.662;2023-06-10T11:34:24;101116.63;;;29.69;35.24
11648;BME280;5880;52.342;9.662;2023-06-10T11:36:51;101119.22;;;29.74;35.76
11648;BME280;5880;52.342;9.662;2023-06-10T11:39:20;101116.50;;;29.77;35.30
11648;BME280;5880;52.342;9.662;2023-06-10T11:41:46;101104.53;;;29.80;35.75
11648;BME280;5880;52.342;9.662;2023-06-10T11:44:13;101111.59;;;29.86;35.37
11648;BME280;5880;52.342;9.662;2023-06-10T11:46:40;101103.25;;;29.90;35.94
11648;BME280;5880;52.342;9.662;2023-06-10T11:49:08;101110.28;;;29.96;36.06
11648;BME280;5880;52.342;9.662;2023-06-10T11:51:41;101109.34;;;30.04;35.44
11648;BME280;5880;52.342;9.662;2023-06-10T11:54:10;101102.06;;;30.03;35.53
11648;BME280;5880;52.342;9.662;2023-06-10T11:56:36;101097.38;;;30.07;35.34
11648;BME280;5880;52.342;9.662;2023-06-10T11:59:05;101100.41;;;30.15;35.64
11648;BME280;5880;52.342;9.662;2023-06-10T12:01:37;101086.44;;;30.18;35.24
11648;BME280;5880;52.342;9.662;2023-06-10T12:04:07;101088.63;;;30.25;35.31
11648;BME280;5880;52.342;9.662;2023-06-10T12:06:44;101087.72;;;30.33;35.26
11648;BME280;5880;52.342;9.662;2023-06-10T12:09:26;101093.13;;;30.38;35.30
11648;BME280;5880;52.342;9.662;2023-06-10T12:12:03;101089.22;;;30.43;35.12
11648;BME280;5880;52.342;9.662;2023-06-10T12:14:58;101087.34;;;30.47;35.15
11648;BME280;5880;52.342;9.662;2023-06-10T12:17:37;101085.81;;;30.49;34.80
11648;BME280;5880;52.342;9.662;2023-06-10T12:20:06;101084.63;;;30.50;34.87
11648;BME280;5880;52.342;9.662;2023-06-10T12:22:41;101076.28;;;30.54;34.59
11648;BME280;5880;52.342;9.662;2023-06-10T12:25:08;101074.63;;;30.53;34.86
11648;BME280;5880;52.342;9.662;2023-06-10T12:27:35;101069.81;;;30.54;34.99
11648;BME280;5880;52.342;9.662;2023-06-10T12:30:05;101062.53;;;30.53;34.72
11648;BME280;5880;52.342;9.662;2023-06-10T12:32:43;101072.03;;;30.60;34.56
11648;BME280;5880;52.342;9.662;2023-06-10T12:35:17;101060.84;;;30.64;34.73
11648;BME280;5880;52.342;9.662;2023-06-10T12:40:33;101067.75;;;30.66;33.93
11648;BME280;5880;52.342;9.662;2023-06-10T12:43:00;101066.59;;;30.67;34.03
11648;BME280;5880;52.342;9.662;2023-06-10T12:45:31;101050.50;;;30.68;34.47
11648;BME280;5880;52.342;9.662;2023-06-10T12:50:40;101061.97;;;30.75;34.30
11648;BME280;5880;52.342;9.662;2023-06-10T12:53:06;101046.69;;;30.76;34.33
11648;BME280;5880;52.342;9.662;2023-06-10T12:55:33;101053.72;;;30.82;33.63
11648;BME280;5880;52.342;9.662;2023-06-10T12:58:00;101051.84;;;30.86;33.75
11648;BME280;5880;52.342;9.662;2023-06-10T13:00:27;101041.47;;;30.90;33.81
11648;BME280;5880;52.342;9.662;2023-06-10T13:02:56;101035.19;;;30.97;33.90
11648;BME280;5880;52.342;9.662;2023-06-10T13:05:22;101041.78;;;31.01;34.07
11648;BME280;5880;52.342;9.662;2023-06-10T13:07:48;101040.78;;;31.09;33.78
11648;BME280;5880;52.342;9.662;2023-06-10T13:10:16;101049.81;;;31.15;33.78
11648;BME280;5880;52.342;9.662;2023-06-10T13:12:43;101033.78;;;31.19;33.58
11648;BME280;5880;52.342;9.662;2023-06-10T13:15:10;101035.53;;;31.24;33.38
11648;BME280;5880;52.342;9.662;2023-06-10T13:17:36;101033.50;;;31.24;33.36
11648;BME280;5880;52.342;9.662;2023-06-10T13:20:03;101033.34;;;31.33;33.54
11648;BME280;5880;52.342;9.662;2023-06-10T13:22:34;101028.56;;;31.37;33.32
11648;BME280;5880;52.342;9.662;2023-06-10T13:25:04;101026.69;;;31.41;33.27
11648;BME280;5880;52.342;9.662;2023-06-10T13:27:32;101019.97;;;31.46;33.25